Aviation Digital Data Service (ADDS)

Output produced by METARs form (1752 UTC 30 September 2014)
found at http://www.aviationweather.gov/adds/metars/
 
KDUJ 301653Z AUTO 22004KT 10SM SCT036 BKN047 22/13 A2990 RMK AO2 SLP117 T02220133
KDUJ 301553Z AUTO 00000KT 10SM SCT027 BKN040 21/14 A2991 RMK AO2 SLP123 T02060139
KDUJ 301453Z AUTO 14003KT 10SM CLR 19/14 A2992 RMK AO2 SLP124 T01940144 58001
KDUJ 301353Z AUTO 00000KT 10SM CLR 17/13 A2993 RMK AO2 SLP130 T01670133
KDUJ 301253Z AUTO 00000KT 8SM CLR 15/13 A2992 RMK AO2 SLP129 T01500133
KDUJ 301222Z AUTO 12003KT 5SM BR CLR 13/12 A2992 RMK AO2 T01280122
KDUJ 301211Z AUTO 00000KT 2SM BR CLR 12/12 A2993 RMK AO2 T01220117
KDUJ 301153Z AUTO 00000KT 3SM BR CLR 12/11 A2992 RMK AO2 SLP130 T01170111 10133 20106 53008
KDUJ 301150Z AUTO 00000KT 3SM BR CLR 11/11 A2992 RMK AO2
KDUJ 301126Z AUTO 12003KT 1 3/4SM BR CLR 11/11 A2992 RMK AO2 T01060106
KDUJ 301053Z AUTO 11004KT 9SM CLR 12/11 A2991 RMK AO2 SLP123 T01170111
KDUJ 300953Z AUTO 10003KT 5SM BR CLR 11/11 A2991 RMK AO2 SLP121 T01110111
KDUJ 300853Z AUTO 10003KT 6SM BR FEW050 12/11 A2990 RMK AO2 SLP118 T01170111 56008
KDUJ 300753Z AUTO 09004KT 5SM BR CLR 12/11 A2990 RMK AO2 SLP118 T01170111
KDUJ 300653Z AUTO 07003KT 9SM BKN055 12/12 A2991 RMK AO2 SLP122 T01220117
KDUJ 300553Z AUTO 09003KT 10SM SCT060 13/12 A2992 RMK AO2 SLP125 T01280117 10167 20128 56007
KDUJ 300453Z AUTO 00000KT 10SM BKN044 BKN060 14/12 A2993 RMK AO2 SLP127 T01390117 402330100
KDUJ 300353Z AUTO 00000KT 10SM CLR 14/11 A2994 RMK AO2 SLP129 T01390106
KDUJ 300253Z AUTO 00000KT 10SM CLR 16/11 A2995 RMK AO2 SLP134 T01560106 50000
KDUJ 300153Z AUTO 24003KT 10SM CLR 14/11 A2995 RMK AO2 SLP137 T01440111
KDUJ 300053Z AUTO 00000KT 10SM CLR 15/12 A2994 RMK AO2 SLP136 T01500117
KDUJ 292353Z AUTO 00000KT 10SM CLR 17/12 A2995 RMK AO2 SLP137 T01670122 10233 20161 53000
KDUJ 292253Z AUTO 00000KT 10SM CLR 21/11 A2994 RMK AO2 SLP133 T02060111
KDUJ 292153Z AUTO 28006KT 10SM CLR 22/11 A2994 RMK AO2 SLP133 T02170111
KDUJ 292053Z AUTO 29005KT 10SM FEW047 23/13 A2994 RMK AO2 SLP132 T02280128 56014
KDUJ 291953Z AUTO 30004KT 10SM FEW045 SCT055 22/13 A2995 RMK AO2 SLP135 T02170128
KDUJ 291853Z AUTO 26009KT 10SM FEW040 22/12 A2996 RMK AO2 SLP138 T02220122 $
KDUJ 291753Z AUTO 25011KT 10SM SCT041 SCT050 23/13 A2999 RMK AO2 SLP146 T02280128 10228 20106 58013 $
KDUJ 291653Z AUTO 25009KT 10SM CLR 22/13 A3001 RMK AO2 SLP153 T02170128 $
KDUJ 291553Z AUTO 29007KT 10SM CLR 21/12 A3002 RMK AO2 SLP158 T02110122 $
KDUJ 291453Z AUTO 26005KT 10SM CLR 19/14 A3003 RMK AO2 SLP163 T01890144 58005 $
KDUJ 291353Z AUTO 23005KT 10SM CLR 17/14 A3004 RMK AO2 SLP166 T01670139 $
KDUJ 291253Z AUTO 00000KT 8SM CLR 15/14 A3004 RMK AO2 SLP169 T01500139 $
KDUJ 291206Z AUTO 00000KT 3SM BR FEW002 12/12 A3004 RMK AO2 T01170117 $
KDUJ 291153Z AUTO 00000KT 1 1/4SM BR SCT002 11/11 A3004 RMK AO2 SLP172 T01060106 10144 20100 53001 $
KDUJ 291149Z AUTO 00000KT 3/4SM BR VV002 11/11 A3004 RMK AO2 $
KDUJ 291120Z AUTO 00000KT 1/4SM FG VV003 11/11 A3004 RMK AO2 T01110106 $
KDUJ 291103Z AUTO 00000KT 3/4SM BR VV003 11/11 A3004 RMK AO2 T01110111 $
KDUJ 291053Z AUTO 00000KT 1/4SM FG VV003 11/11 A3004 RMK AO2 SLP169 T01110111 $
KDUJ 291039Z AUTO 12003KT 1/4SM FG VV003 12/12 A3004 RMK AO2 T01170117 $
KDUJ 291033Z AUTO 00000KT 1/2SM FG CLR 12/12 A3004 RMK AO2 T01170117 $
KDUJ 290953Z AUTO 00000KT 1/2SM FG VV002 12/12 A3004 RMK AO2 SLP168 T01220122 $
KDUJ 290936Z AUTO 00000KT 1SM BR VV002 13/13 A3004 RMK AO2 T01280128 $
KDUJ 290928Z AUTO 00000KT 1/4SM FG VV003 13/13 A3004 RMK AO2 T01280128 $
KDUJ 290902Z AUTO 00000KT 3/4SM BR CLR 13/13 A3004 RMK AO2 T01330128 $
KDUJ 290853Z AUTO 00000KT 2 1/2SM BR CLR 13/13 A3005 RMK AO2 SLP168 T01280128 55002 $
KDUJ 290848Z AUTO 00000KT 3SM BR CLR 13/13 A3004 RMK AO2 $
KDUJ 290811Z AUTO 00000KT 2SM BR CLR 12/12 A3005 RMK AO2 T01220122 $
KDUJ 290758Z AUTO 00000KT 1/2SM FG VV003 13/13 A3005 RMK AO2 T01330128 $
KDUJ 290753Z AUTO 00000KT 1 1/2SM BR CLR 13/13 A3005 RMK AO2 SLP169 T01330128 $
KDUJ 290741Z AUTO 10003KT 2SM BR CLR 13/13 A3005 RMK AO2 T01330128 $
KDUJ 290728Z AUTO 11003KT 1/2SM FG CLR 13/13 A3005 RMK AO2 T01330128 $
KDUJ 290715Z AUTO 00000KT 3/4SM BR VV003 13/13 A3005 RMK AO2 T01330133 $
KDUJ 290701Z AUTO 00000KT 1 3/4SM BR CLR 13/13 A3005 RMK AO2 T01330128 $
KDUJ 290653Z AUTO 00000KT 5SM BR CLR 14/13 A3006 RMK AO2 SLP169 T01390133 $
KDUJ 290609Z AUTO 10004KT 3SM BR CLR 14/13 A3006 RMK AO2 T01390133 $
KDUJ 290601Z AUTO 10004KT 2 1/2SM BR CLR 13/13 A3006 RMK AO2 T01330133 $
KDUJ 290553Z AUTO 09003KT 1 3/4SM BR CLR 14/14 A3006 RMK AO2 SLP172 T01440139 10178 20139 56008 $